sensor_id;sensor_type;location;lat;lon;timestamp;temperature;humidity
1568;DHT22;777;47.156;8.326;2024-03-23T00:54:15;9.00;99.90
1568;DHT22;777;47.156;8.326;2024-03-23T01:24:18;8.50;99.90
1568;DHT22;777;47.156;8.326;2024-03-23T01:54:23;8.60;99.90
1568;DHT22;777;47.156;8.326;2024-03-23T02:24:28;8.60;99.90
1568;DHT22;777;47.156;8.326;2024-03-23T02:54:32;8.60;99.90
1568;DHT22;777;47.156;8.326;2024-03-23T03:24:35;8.90;99.90
1568;DHT22;777;47.156;8.326;2024-03-23T03:54:38;8.60;99.90
1568;DHT22;777;47.156;8.326;2024-03-23T04:24:42;9.30;99.90
1568;DHT22;777;47.156;8.326;2024-03-23T04:54:45;8.90;99.90
1568;DHT22;777;47.156;8.326;2024-03-23T05:24:49;8.70;99.90
1568;DHT22;777;47.156;8.326;2024-03-23T05:54:52;9.50;99.90
1568;DHT22;777;47.156;8.326;2024-03-23T06:24:56;10.40;99.90
1568;DHT22;777;47.156;8.326;2024-03-23T06:55:00;9.50;99.90
1568;DHT22;777;47.156;8.326;2024-03-23T07:25:03;9.10;99.90
1568;DHT22;777;47.156;8.326;2024-03-23T07:55:07;9.20;99.90
1568;DHT22;777;47.156;8.326;2024-03-23T08:25:10;10.00;99.90
1568;DHT22;777;47.156;8.326;2024-03-23T08:55:14;9.00;99.90
1568;DHT22;777;47.156;8.326;2024-03-23T09:25:17;7.80;99.90
1568;DHT22;777;47.156;8.326;2024-03-23T09:55:21;8.90;99.90
1568;DHT22;777;47.156;8.326;2024-03-23T10:25:26;9.30;99.90
1568;DHT22;777;47.156;8.326;2024-03-23T10:55:30;9.10;99.90
1568;DHT22;777;47.156;8.326;2024-03-23T11:25:34;8.70;99.90
1568;DHT22;777;47.156;8.326;2024-03-23T11:55:42;12.00;99.90
1568;DHT22;777;47.156;8.326;2024-03-23T12:25:48;14.00;99.90
1568;DHT22;777;47.156;8.326;2024-03-23T12:55:52;15.50;94.00
1568;DHT22;777;47.156;8.326;2024-03-23T13:25:57;17.90;85.20
1568;DHT22;777;47.156;8.326;2024-03-23T13:56:00;17.10;79.60
1568;DHT22;777;47.156;8.326;2024-03-23T14:26:05;16.70;68.70
1568;DHT22;777;47.156;8.326;2024-03-23T14:56:08;16.10;71.20
1568;DHT22;777;47.156;8.326;2024-03-23T15:26:14;17.40;74.10
1568;DHT22;777;47.156;8.326;2024-03-23T15:56:18;11.10;84.20
1568;DHT22;777;47.156;8.326;2024-03-23T16:26:21;10.30;90.80
1568;DHT22;777;47.156;8.326;2024-03-23T16:56:25;9.80;92.70
1568;DHT22;777;47.156;8.326;2024-03-23T17:26:28;9.20;92.70
1568;DHT22;777;47.156;8.326;2024-03-23T17:56:31;8.60;98.50
1568;DHT22;777;47.156;8.326;2024-03-23T18:26:35;8.20;99.90
1568;DHT22;777;47.156;8.326;2024-03-23T18:56:38;4.80;99.90
1568;DHT22;777;47.156;8.326;2024-03-23T19:26:44;4.10;99.90
1568;DHT22;777;47.156;8.326;2024-03-23T19:56:48;4.00;99.90
1568;DHT22;777;47.156;8.326;2024-03-23T20:26:51;4.10;99.90
1568;DHT22;777;47.156;8.326;2024-03-23T20:56:55;4.60;99.90
1568;DHT22;777;47.156;8.326;2024-03-23T21:26:59;3.20;99.90
1568;DHT22;777;47.156;8.326;2024-03-23T21:57:02;1.90;99.90
1568;DHT22;777;47.156;8.326;2024-03-23T22:27:06;1.80;99.90
1568;DHT22;777;47.156;8.326;2024-03-23T22:57:10;1.70;99.90
1568;DHT22;777;47.156;8.326;2024-03-23T23:27:14;2.30;99.90
1568;DHT22;777;47.156;8.326;2024-03-23T23:57:18;2.70;99.90
